Time;durP1;ratioP1;P1;durP2;ratioP2;P2;SDS_P1;SDS_P2;PMS_P1;PMS_P2;Temp;Humidity;BMP_temperature;BMP_pressure;BME280_temperature;BME280_humidity;BME280_pressure;Samples;Min_cycle;Max_cycle;Signal;HPM_P1;HPM_P2
2024/01/12 00:01:19;;;;;;;1.90;1.80;;;-2.30;96.30;;;;;;4916984;29;20171;-63
2024/01/12 00:03:45;;;;;;;5.50;0.80;;;-2.20;96.10;;;;;;4917096;29;20191;-63
2024/01/12 00:06:10;;;;;;;0.60;0.60;;;-2.00;96.00;;;;;;4917020;29;20186;-63
2024/01/12 00:08:39;;;;;;;0.60;0.60;;;-1.90;95.80;;;;;;4920313;29;20257;-63
2024/01/12 00:11:09;;;;;;;3.20;1.48;;;-1.90;95.50;;;;;;4935891;29;20229;-63
2024/01/12 00:13:35;;;;;;;1.67;0.93;;;-1.80;95.30;;;;;;4935842;29;20194;-63
2024/01/12 00:16:05;;;;;;;0.40;0.40;;;-1.90;95.60;;;;;;4935832;29;20611;-63
2024/01/12 00:18:30;;;;;;;0.50;0.50;;;-1.80;95.30;;;;;;4936015;29;20786;-63
2024/01/12 00:20:56;;;;;;;0.43;0.43;;;-1.70;95.30;;;;;;4935709;29;20178;-63
2024/01/12 00:23:21;;;;;;;0.33;0.33;;;-1.70;95.30;;;;;;4935515;29;20190;-63
2024/01/12 00:25:47;;;;;;;0.40;0.40;;;-1.70;95.50;;;;;;4935023;29;20170;-63
2024/01/12 00:28:13;;;;;;;0.47;0.47;;;-1.60;95.60;;;;;;4936141;29;20174;-63
2024/01/12 00:30:38;;;;;;;0.50;0.50;;;-1.60;95.60;;;;;;4935398;29;20177;-63
2024/01/12 00:33:05;;;;;;;0.30;0.30;;;-1.60;95.50;;;;;;4935274;29;20190;-63
2024/01/12 00:35:31;;;;;;;0.50;0.50;;;-1.60;95.20;;;;;;4935728;29;20175;-63
2024/01/12 00:37:57;;;;;;;0.40;0.40;;;-1.50;95.00;;;;;;4935473;29;20201;-63
2024/01/12 00:40:23;;;;;;;0.40;0.40;;;-1.50;94.80;;;;;;4935331;29;20489;-63
2024/01/12 00:42:50;;;;;;;0.30;0.30;;;-1.50;94.70;;;;;;4935060;29;20458;-63
2024/01/12 00:45:16;;;;;;;0.47;0.45;;;-1.50;94.10;;;;;;4935356;29;20703;-63
2024/01/12 00:47:42;;;;;;;0.30;0.30;;;-1.40;94.10;;;;;;4935383;29;20178;-63
2024/01/12 00:50:08;;;;;;;0.40;0.40;;;-1.30;94.30;;;;;;4935294;29;20185;-63
2024/01/12 00:52:34;;;;;;;0.30;0.30;;;-1.40;94.30;;;;;;4935059;29;20201;-63
2024/01/12 00:55:00;;;;;;;0.30;0.30;;;-1.30;94.10;;;;;;4935317;29;20270;-63
2024/01/12 00:57:26;;;;;;;0.30;0.30;;;-1.30;93.50;;;;;;4935153;29;20621;-63
2024/01/12 00:59:51;;;;;;;0.50;0.50;;;-1.20;93.20;;;;;;4933611;29;20422;-63
2024/01/12 01:02:17;;;;;;;0.40;0.40;;;-1.30;93.20;;;;;;4934682;29;20190;-63
2024/01/12 01:04:43;;;;;;;0.50;0.50;;;-1.30;93.10;;;;;;4935251;29;20174;-63
2024/01/12 01:07:08;;;;;;;0.40;0.40;;;-1.20;93.00;;;;;;4934671;29;20178;-63
2024/01/12 01:09:34;;;;;;;0.40;0.40;;;-1.20;92.60;;;;;;4934988;29;20179;-63
2024/01/12 01:11:59;;;;;;;0.40;0.40;;;-1.20;92.40;;;;;;4934316;29;20556;-63
2024/01/12 01:14:26;;;;;;;0.30;0.30;;;-1.20;92.00;;;;;;4934765;29;20182;-63
2024/01/12 01:16:53;;;;;;;0.40;0.40;;;-1.10;92.10;;;;;;4934620;29;20218;-63
2024/01/12 01:19:19;;;;;;;0.82;0.50;;;-1.00;91.80;;;;;;4934783;29;20179;-63
2024/01/12 01:21:45;;;;;;;0.52;0.52;;;-0.80;91.60;;;;;;4934433;29;20178;-63
2024/01/12 01:24:11;;;;;;;5.67;1.90;;;-0.70;91.60;;;;;;4934699;29;20674;-63
2024/01/12 01:26:36;;;;;;;0.40;0.40;;;-0.80;91.00;;;;;;4934700;29;20257;-63
2024/01/12 01:29:02;;;;;;;0.70;0.70;;;-0.70;90.60;;;;;;4934586;29;20174;-63
2024/01/12 01:31:28;;;;;;;0.98;0.73;;;-0.60;89.30;;;;;;4934350;29;20173;-63
2024/01/12 01:33:54;;;;;;;0.30;0.30;;;-0.50;89.80;;;;;;4934528;29;20202;-64
2024/01/12 01:36:20;;;;;;;0.40;0.40;;;-0.40;89.30;;;;;;4934525;29;20589;-63
2024/01/12 01:38:45;;;;;;;0.87;0.87;;;-0.50;90.00;;;;;;4934490;29;20175;-63
2024/01/12 01:41:11;;;;;;;0.30;0.30;;;-0.60;89.60;;;;;;4933878;29;20174;-64
2024/01/12 01:43:37;;;;;;;0.30;0.30;;;-0.60;90.00;;;;;;4933601;29;20446;-63
2024/01/12 01:46:03;;;;;;;0.30;0.30;;;-0.60;90.10;;;;;;4934509;29;20205;-63
2024/01/12 01:48:29;;;;;;;0.40;0.40;;;-0.60;90.10;;;;;;4934418;29;20550;-63
2024/01/12 01:50:55;;;;;;;0.30;0.30;;;-0.50;90.20;;;;;;4934369;29;20546;-63
2024/01/12 01:53:21;;;;;;;0.40;0.40;;;-0.60;90.20;;;;;;4934202;29;20252;-63
2024/01/12 01:55:47;;;;;;;0.30;0.30;;;-0.60;90.20;;;;;;4934227;29;20186;-63
2024/01/12 01:58:13;;;;;;;0.40;0.40;;;-0.50;90.20;;;;;;4934310;29;20172;-63
2024/01/12 02:00:39;;;;;;;0.30;0.30;;;-0.60;90.00;;;;;;4934191;29;20199;-63
2024/01/12 02:03:06;;;;;;;0.50;0.50;;;-0.80;90.30;;;;;;4934096;29;20202;-63
2024/01/12 02:05:35;;;;;;;0.40;0.40;;;-0.90;90.50;;;;;;4934316;29;20174;-62
2024/01/12 02:08:01;;;;;;;0.30;0.30;;;-0.90;90.80;;;;;;4934361;29;20253;-64
2024/01/12 02:10:28;;;;;;;0.82;0.82;;;-0.80;90.70;;;;;;4934135;29;20178;-63
2024/01/12 02:12:54;;;;;;;0.30;0.30;;;-0.80;90.50;;;;;;4933924;29;20261;-63
2024/01/12 02:15:21;;;;;;;0.40;0.40;;;-0.90;90.40;;;;;;4934135;29;20170;-63
2024/01/12 02:17:47;;;;;;;0.30;0.30;;;-0.80;90.40;;;;;;4916078;29;20219;-63
2024/01/12 02:20:13;;;;;;;0.40;0.40;;;-0.80;90.20;;;;;;4915104;29;20179;-63
2024/01/12 02:22:39;;;;;;;0.40;0.40;;;-0.70;90.00;;;;;;4915077;29;20206;-63
2024/01/12 02:25:05;;;;;;;0.30;0.30;;;-0.80;88.30;;;;;;4915119;29;20190;-63
2024/01/12 02:27:31;;;;;;;0.60;0.60;;;-0.80;88.90;;;;;;4915021;29;20194;-63
2024/01/12 02:29:57;;;;;;;0.93;0.93;;;-0.80;88.80;;;;;;4915080;29;20175;-62
2024/01/12 02:32:23;;;;;;;0.30;0.30;;;-0.70;88.30;;;;;;4914812;29;20207;-63
2024/01/12 02:34:50;;;;;;;0.30;0.30;;;-0.80;88.40;;;;;;4915099;29;20677;-63
2024/01/12 02:37:15;;;;;;;0.40;0.40;;;-0.80;88.10;;;;;;4914959;29;20194;-63
2024/01/12 02:39:41;;;;;;;0.30;0.30;;;-0.80;88.40;;;;;;4915022;29;20179;-63
2024/01/12 02:42:07;;;;;;;0.37;0.37;;;-0.80;89.40;;;;;;4914484;29;20305;-64
2024/01/12 02:44:32;;;;;;;0.30;0.30;;;-0.90;89.50;;;;;;4914960;29;20262;-64
2024/01/12 02:46:58;;;;;;;1.43;0.57;;;-0.90;89.30;;;;;;4914972;29;20182;-63
2024/01/12 02:49:24;;;;;;;0.37;0.37;;;-0.90;89.20;;;;;;4914933;29;20234;-63
2024/01/12 02:51:49;;;;;;;0.80;0.80;;;-0.90;89.50;;;;;;4914571;29;20227;-63
2024/01/12 02:54:15;;;;;;;1.00;1.00;;;-1.00;89.20;;;;;;4914769;29;20171;-63
2024/01/12 02:56:41;;;;;;;0.93;0.90;;;-1.20;88.80;;;;;;4917824;29;20208;-63
2024/01/12 02:59:06;;;;;;;0.70;0.70;;;-1.40;89.10;;;;;;4918475;29;20183;-63
2024/01/12 03:01:34;;;;;;;2.30;2.20;;;-1.50;89.90;;;;;;4918201;29;20171;-63
2024/01/12 03:04:00;;;;;;;1.95;1.33;;;-1.60;90.10;;;;;;4918142;29;20199;-63
2024/01/12 03:06:25;;;;;;;1.13;1.13;;;-1.80;90.40;;;;;;4916797;29;20183;-63
2024/01/12 03:08:51;;;;;;;1.00;1.00;;;-1.90;90.70;;;;;;4918190;29;20186;-63
2024/01/12 03:11:17;;;;;;;0.40;0.40;;;-2.00;91.20;;;;;;4917815;29;20183;-62
2024/01/12 03:13:42;;;;;;;0.77;0.77;;;-2.00;91.30;;;;;;4918698;29;20206;-62
2024/01/12 03:16:18;;;;;;;1.47;1.47;;;-2.00;91.40;;;;;;4937028;29;20393;-63
2024/01/12 03:18:44;;;;;;;2.55;2.35;;;-2.00;91.30;;;;;;4936660;29;20181;-63
2024/01/12 03:21:10;;;;;;;0.70;0.70;;;-2.00;91.40;;;;;;4936685;29;20174;-63
2024/01/12 03:23:35;;;;;;;0.97;0.97;;;-2.10;91.50;;;;;;4936994;29;20438;-63
2024/01/12 03:26:01;;;;;;;0.60;0.60;;;-2.20;91.70;;;;;;4918249;29;20210;-63
2024/01/12 03:28:27;;;;;;;2.10;1.97;;;-2.20;91.60;;;;;;4917293;29;20169;-63
2024/01/12 03:30:52;;;;;;;1.47;1.47;;;-2.40;91.50;;;;;;4917637;29;20167;-63
2024/01/12 03:33:18;;;;;;;2.70;2.50;;;-2.50;91.80;;;;;;4917485;29;20202;-63
2024/01/12 03:35:43;;;;;;;0.80;0.80;;;-2.60;91.70;;;;;;4917602;29;20171;-64
2024/01/12 03:38:12;;;;;;;1.05;1.05;;;-2.70;91.70;;;;;;4917973;29;20179;-63
2024/01/12 03:40:38;;;;;;;0.90;0.88;;;-2.80;91.90;;;;;;4917409;29;20677;-63
2024/01/12 03:43:04;;;;;;;1.20;1.20;;;-2.80;92.10;;;;;;4916920;29;20245;-63
2024/01/12 03:45:29;;;;;;;0.70;0.70;;;-2.90;92.20;;;;;;4917485;29;20834;-63
2024/01/12 03:47:55;;;;;;;11.07;2.60;;;-3.00;92.20;;;;;;4917510;29;20229;-63
2024/01/12 03:50:20;;;;;;;7.67;1.70;;;-3.10;92.30;;;;;;4917400;29;20186;-63
2024/01/12 03:52:46;;;;;;;2.87;2.77;;;-3.00;92.90;;;;;;4917227;29;20581;-63
2024/01/12 03:55:12;;;;;;;1.27;1.17;;;-3.00;93.20;;;;;;4917303;29;20182;-62
2024/01/12 03:57:37;;;;;;;0.70;0.70;;;-2.90;93.30;;;;;;4917270;29;20290;-63
2024/01/12 04:00:05;;;;;;;4.57;0.80;;;-2.90;93.30;;;;;;4917042;29;20183;-64
2024/01/12 04:02:31;;;;;;;0.95;0.95;;;-2.90;93.40;;;;;;4917025;29;20206;-63
2024/01/12 04:04:57;;;;;;;0.40;0.40;;;-2.90;93.60;;;;;;4917357;29;20677;-63
2024/01/12 04:07:22;;;;;;;1.70;1.10;;;-2.80;93.70;;;;;;4916603;29;20178;-63
2024/01/12 04:09:48;;;;;;;0.40;0.40;;;-2.60;93.50;;;;;;4917041;29;20679;-63
2024/01/12 04:12:13;;;;;;;0.37;0.37;;;-2.50;93.30;;;;;;4916733;29;20289;-63
2024/01/12 04:14:44;;;;;;;0.83;0.83;;;-2.40;93.00;;;;;;4916969;29;20258;-62
2024/01/12 04:17:10;;;;;;;1.02;1.02;;;-2.30;92.70;;;;;;4916930;29;20210;-63
2024/01/12 04:19:35;;;;;;;0.30;0.30;;;-2.30;92.60;;;;;;4916563;29;20193;-63
2024/01/12 04:22:01;;;;;;;0.70;0.70;;;-2.30;92.60;;;;;;4916570;29;20206;-63
2024/01/12 04:24:26;;;;;;;0.93;0.93;;;-2.30;92.50;;;;;;4916911;29;20266;-63
2024/01/12 04:26:52;;;;;;;2.00;0.60;;;-2.40;92.20;;;;;;4916952;29;20171;-63
2024/01/12 04:29:18;;;;;;;6.53;1.33;;;-2.40;92.30;;;;;;4916949;29;20234;-63
2024/01/12 04:31:43;;;;;;;2.03;1.93;;;-2.40;92.20;;;;;;4916394;29;20205;-63
2024/01/12 04:34:09;;;;;;;2.00;1.83;;;-2.50;92.20;;;;;;4916719;29;20254;-63
2024/01/12 04:36:34;;;;;;;0.40;0.40;;;-2.60;92.20;;;;;;4916832;29;20203;-63
2024/01/12 04:39:00;;;;;;;0.40;0.40;;;-2.60;92.40;;;;;;4916433;29;20190;-63
2024/01/12 04:41:26;;;;;;;0.70;0.70;;;-2.60;92.60;;;;;;4916261;29;20231;-63
2024/01/12 04:43:51;;;;;;;0.40;0.40;;;-2.60;92.80;;;;;;4916239;29;20583;-63
2024/01/12 04:46:17;;;;;;;0.40;0.40;;;-2.50;92.80;;;;;;4916321;29;20547;-63
2024/01/12 04:48:43;;;;;;;1.17;1.17;;;-2.50;92.70;;;;;;4916360;29;20186;-63
2024/01/12 04:51:08;;;;;;;0.30;0.30;;;-2.40;92.60;;;;;;4916199;29;20680;-63
2024/01/12 04:53:34;;;;;;;1.13;1.03;;;-2.30;92.30;;;;;;4916213;29;20210;-63
2024/01/12 04:55:59;;;;;;;1.93;1.73;;;-2.40;92.00;;;;;;4916227;29;20289;-63
2024/01/12 04:58:25;;;;;;;0.93;0.70;;;-2.40;91.70;;;;;;4916159;29;20171;-63
2024/01/12 05:00:51;;;;;;;0.43;0.43;;;-2.60;91.60;;;;;;4916042;29;20203;-63
2024/01/12 05:03:16;;;;;;;1.20;1.00;;;-2.70;91.80;;;;;;4916002;29;20760;-63
2024/01/12 05:05:42;;;;;;;2.20;2.10;;;-2.70;92.20;;;;;;4916033;29;20179;-63
2024/01/12 05:08:08;;;;;;;0.50;0.50;;;-2.70;92.30;;;;;;4915995;29;20185;-63
2024/01/12 05:10:33;;;;;;;0.40;0.40;;;-2.80;92.40;;;;;;4918363;29;20211;-63
2024/01/12 05:12:59;;;;;;;0.50;0.50;;;-2.80;92.50;;;;;;4924588;29;20712;-61
2024/01/12 05:15:24;;;;;;;2.43;0.80;;;-2.80;92.60;;;;;;4924938;29;20194;-63
2024/01/12 05:17:50;;;;;;;1.43;1.00;;;-2.80;92.70;;;;;;4924045;29;20206;-62
2024/01/12 05:20:16;;;;;;;0.40;0.40;;;-2.70;92.80;;;;;;4925121;29;20185;-63
2024/01/12 05:22:41;;;;;;;0.93;0.93;;;-2.70;92.70;;;;;;4919216;29;20222;-63
2024/01/12 05:25:07;;;;;;;0.57;0.57;;;-2.70;92.90;;;;;;4927738;29;20225;-62
2024/01/12 05:27:33;;;;;;;0.40;0.40;;;-2.70;92.60;;;;;;4934650;29;20184;-63
2024/01/12 05:29:58;;;;;;;0.43;0.43;;;-2.70;92.50;;;;;;4934605;29;20502;-63
2024/01/12 05:32:24;;;;;;;1.40;1.40;;;-2.70;92.50;;;;;;4934290;29;20209;-63
2024/01/12 05:34:50;;;;;;;0.50;0.50;;;-2.80;92.50;;;;;;4934710;29;20208;-63
2024/01/12 05:37:15;;;;;;;0.50;0.50;;;-2.90;92.70;;;;;;4934513;29;20214;-63
2024/01/12 05:39:42;;;;;;;0.63;0.63;;;-2.90;92.80;;;;;;4934495;29;20166;-63
2024/01/12 05:42:07;;;;;;;0.50;0.50;;;-2.90;93.00;;;;;;4934077;29;20202;-63
2024/01/12 05:44:33;;;;;;;1.47;1.37;;;-2.90;93.30;;;;;;4934516;29;20197;-63
2024/01/12 05:46:58;;;;;;;0.70;0.70;;;-2.80;93.20;;;;;;4935306;29;20188;-62
2024/01/12 05:49:24;;;;;;;0.57;0.57;;;-2.80;93.10;;;;;;4934440;29;20175;-63
2024/01/12 05:51:51;;;;;;;0.70;0.70;;;-2.80;93.00;;;;;;4934141;29;20190;-63
2024/01/12 05:54:16;;;;;;;1.10;1.10;;;-2.80;93.10;;;;;;4934418;29;20264;-63
2024/01/12 05:56:42;;;;;;;0.50;0.50;;;-2.70;93.20;;;;;;4934251;29;20234;-63
2024/01/12 05:59:08;;;;;;;0.50;0.50;;;-2.70;93.20;;;;;;4934328;29;20186;-63
2024/01/12 06:01:34;;;;;;;0.60;0.60;;;-2.70;93.10;;;;;;4934075;29;20181;-63
2024/01/12 06:03:59;;;;;;;1.43;0.80;;;-2.60;93.00;;;;;;4934266;29;20634;-63
2024/01/12 06:06:25;;;;;;;0.50;0.50;;;-2.70;92.80;;;;;;4934167;29;20178;-63
2024/01/12 06:08:51;;;;;;;0.70;0.70;;;-2.70;92.90;;;;;;4934260;29;20182;-63
2024/01/12 06:11:17;;;;;;;0.73;0.73;;;-2.70;93.10;;;;;;4934002;29;20186;-63
2024/01/12 06:13:42;;;;;;;0.40;0.40;;;-2.70;93.10;;;;;;4934107;29;20654;-63
2024/01/12 06:16:08;;;;;;;1.50;0.57;;;-2.70;93.20;;;;;;4934173;29;20708;-63
2024/01/12 06:18:34;;;;;;;0.60;0.60;;;-2.70;93.40;;;;;;4934355;29;20180;-63
2024/01/12 06:20:59;;;;;;;0.50;0.50;;;-2.60;93.50;;;;;;4933837;29;20280;-63
2024/01/12 06:23:25;;;;;;;0.50;0.50;;;-2.60;93.40;;;;;;4934102;29;20615;-63
2024/01/12 06:25:51;;;;;;;0.40;0.40;;;-2.50;93.30;;;;;;4934096;29;20171;-63
2024/01/12 06:28:16;;;;;;;0.43;0.43;;;-2.50;93.30;;;;;;4934336;29;20213;-63
2024/01/12 06:30:42;;;;;;;0.50;0.50;;;-2.50;93.40;;;;;;4936127;29;20549;-63
2024/01/12 06:33:08;;;;;;;0.83;0.83;;;-2.50;93.30;;;;;;4937727;29;20194;-63
2024/01/12 06:35:33;;;;;;;0.40;0.40;;;-2.50;93.40;;;;;;4937743;29;20226;-63
2024/01/12 06:37:59;;;;;;;0.30;0.30;;;-2.50;93.40;;;;;;4937613;29;20284;-63
2024/01/12 06:40:25;;;;;;;0.50;0.50;;;-2.40;93.50;;;;;;4937532;29;20170;-63
2024/01/12 06:42:50;;;;;;;0.50;0.50;;;-2.40;93.40;;;;;;4937288;29;20680;-63
2024/01/12 06:45:16;;;;;;;0.40;0.40;;;-2.30;93.40;;;;;;4938011;29;20174;-64
2024/01/12 06:47:43;;;;;;;0.37;0.37;;;-2.30;93.20;;;;;;4936320;29;20241;-63
2024/01/12 06:50:09;;;;;;;0.40;0.40;;;-2.30;93.30;;;;;;4924120;29;20561;-62
2024/01/12 06:52:37;;;;;;;0.65;0.65;;;-2.30;93.30;;;;;;4918084;29;20206;-62
2024/01/12 06:55:03;;;;;;;0.40;0.40;;;-2.20;93.20;;;;;;4918273;29;20649;-63
2024/01/12 06:57:29;;;;;;;0.40;0.40;;;-2.20;93.20;;;;;;4927510;29;20198;-62
2024/01/12 06:59:55;;;;;;;0.52;0.52;;;-2.10;93.20;;;;;;4935719;29;20170;-62
2024/01/12 07:02:21;;;;;;;0.67;0.50;;;-2.10;93.20;;;;;;4936639;29;20281;-63
2024/01/12 07:04:46;;;;;;;0.50;0.50;;;-2.10;93.00;;;;;;4935905;29;20586;-63
2024/01/12 07:07:12;;;;;;;0.77;0.77;;;-2.10;93.10;;;;;;4937765;29;20170;-62
2024/01/12 07:09:39;;;;;;;1.17;1.07;;;-2.20;93.00;;;;;;4937544;29;20186;-63
2024/01/12 07:12:05;;;;;;;0.40;0.40;;;-2.20;93.20;;;;;;4936995;29;20430;-63
2024/01/12 07:14:31;;;;;;;1.43;1.33;;;-2.20;93.20;;;;;;4937115;29;20182;-63
2024/01/12 07:16:56;;;;;;;0.87;0.87;;;-2.20;93.40;;;;;;4936989;29;20465;-63
2024/01/12 07:19:22;;;;;;;0.50;0.50;;;-2.10;93.40;;;;;;4936959;29;20166;-63
2024/01/12 07:21:47;;;;;;;2.00;1.57;;;-2.20;93.40;;;;;;4936636;29;20175;-63
2024/01/12 07:24:13;;;;;;;0.40;0.40;;;-2.10;93.50;;;;;;4935305;29;20690;-62
2024/01/12 07:26:39;;;;;;;0.50;0.50;;;-2.00;93.50;;;;;;4936987;29;20558;-63
2024/01/12 07:29:05;;;;;;;1.50;1.40;;;-2.00;93.50;;;;;;4936782;29;20418;-60
2024/01/12 07:31:32;;;;;;;0.30;0.30;;;-1.90;93.50;;;;;;4921608;29;20194;-60
2024/01/12 07:33:58;;;;;;;0.30;0.30;;;-1.90;93.30;;;;;;4917724;29;20824;-61
2024/01/12 07:36:24;;;;;;;0.30;0.30;;;-1.90;93.30;;;;;;4917657;29;20202;-63
2024/01/12 07:38:49;;;;;;;0.53;0.53;;;-1.90;93.10;;;;;;4917613;29;20203;-63
2024/01/12 07:41:15;;;;;;;0.53;0.53;;;-1.90;92.90;;;;;;4916583;29;20254;-64
2024/01/12 07:43:41;;;;;;;0.97;0.87;;;-1.80;93.10;;;;;;4917026;29;20302;-63
2024/01/12 07:46:06;;;;;;;0.40;0.40;;;-1.90;93.00;;;;;;4917568;29;20170;-62
2024/01/12 07:48:32;;;;;;;1.80;1.80;;;-1.80;93.00;;;;;;4917563;29;20688;-63
2024/01/12 07:50:58;;;;;;;0.77;0.77;;;-1.90;93.00;;;;;;4917371;29;20713;-63
2024/01/12 07:53:23;;;;;;;0.60;0.60;;;-1.80;93.00;;;;;;4917295;29;20194;-64
2024/01/12 07:55:52;;;;;;;0.60;0.60;;;-1.70;93.10;;;;;;4917378;29;20179;-63
2024/01/12 07:58:19;;;;;;;0.60;0.60;;;-1.80;93.00;;;;;;4917530;29;20732;-63
2024/01/12 08:00:45;;;;;;;0.82;0.82;;;-1.80;93.20;;;;;;4917310;29;20183;-63
2024/01/12 08:03:11;;;;;;;4.57;2.90;;;-1.70;93.20;;;;;;4917003;29;20194;-63
2024/01/12 08:05:36;;;;;;;2.70;2.60;;;-1.80;93.10;;;;;;4917190;29;20258;-63
2024/01/12 08:08:02;;;;;;;1.33;1.23;;;-1.80;93.20;;;;;;4917055;29;20566;-63
2024/01/12 08:10:28;;;;;;;0.43;0.43;;;-1.70;93.10;;;;;;4916763;29;20179;-63
2024/01/12 08:12:53;;;;;;;6.03;0.83;;;-1.80;92.90;;;;;;4920294;29;20631;-63
2024/01/12 08:15:19;;;;;;;2.30;1.83;;;-1.70;93.30;;;;;;4935993;29;20175;-62
2024/01/12 08:17:45;;;;;;;1.70;1.23;;;-1.00;94.50;;;;;;4935707;29;20319;-62
2024/01/12 08:20:11;;;;;;;3.47;2.57;;;0.70;95.30;;;;;;4935770;29;20410;-64
2024/01/12 08:22:36;;;;;;;9.38;6.97;;;2.80;93.10;;;;;;4935154;29;20205;-64
2024/01/12 08:25:03;;;;;;;9.07;7.47;;;4.50;86.20;;;;;;4935842;29;20256;-64
2024/01/12 08:27:29;;;;;;;4.32;3.13;;;6.10;81.10;;;;;;4917014;29;20183;-65
2024/01/12 08:29:55;;;;;;;2.00;1.60;;;7.10;72.80;;;;;;4916507;29;20265;-63
2024/01/12 08:32:20;;;;;;;7.10;6.20;;;7.80;68.80;;;;;;4932115;29;20198;-65
2024/01/12 08:34:47;;;;;;;4.73;4.33;;;8.40;66.10;;;;;;4935139;29;20229;-65
2024/01/12 08:37:13;;;;;;;5.70;3.50;;;8.50;61.60;;;;;;4935020;29;20206;-65
2024/01/12 08:39:39;;;;;;;6.47;3.40;;;8.50;60.40;;;;;;4935483;29;20414;-65
2024/01/12 08:42:05;;;;;;;6.13;5.27;;;8.20;60.10;;;;;;4934869;29;20691;-65
2024/01/12 08:44:30;;;;;;;14.10;8.90;;;8.10;59.90;;;;;;4935483;29;20194;-64
2024/01/12 08:46:56;;;;;;;6.57;4.97;;;7.90;60.20;;;;;;4935345;29;20429;-65
2024/01/12 08:49:21;;;;;;;3.87;3.50;;;7.70;59.80;;;;;;4935348;29;20213;-65
2024/01/12 08:51:48;;;;;;;3.53;2.87;;;7.40;60.60;;;;;;4934960;29;20257;-64
2024/01/12 08:54:14;;;;;;;2.58;2.28;;;7.20;61.00;;;;;;4934940;29;20186;-64
2024/01/12 08:56:41;;;;;;;1.50;1.40;;;6.70;60.60;;;;;;4935012;29;20212;-64
2024/01/12 08:59:08;;;;;;;1.92;1.65;;;6.30;63.20;;;;;;4935202;29;20178;-65
2024/01/12 09:01:34;;;;;;;4.97;3.75;;;6.30;63.00;;;;;;4934925;29;20558;-65
2024/01/12 09:04:01;;;;;;;2.80;2.53;;;6.50;64.00;;;;;;4935095;29;20218;-64
2024/01/12 09:06:27;;;;;;;6.45;3.10;;;6.90;64.10;;;;;;4935010;29;20940;-64
2024/01/12 09:08:53;;;;;;;3.20;2.80;;;7.60;62.90;;;;;;4935102;29;20221;-63
2024/01/12 09:11:19;;;;;;;1.93;1.83;;;7.90;61.60;;;;;;4934813;29;20422;-61
2024/01/12 09:13:44;;;;;;;1.73;1.63;;;8.40;60.60;;;;;;4934926;29;20813;-61
2024/01/12 09:16:10;;;;;;;1.77;1.67;;;8.90;59.00;;;;;;4934755;29;20186;-62
2024/01/12 09:18:37;;;;;;;3.47;2.57;;;9.50;57.90;;;;;;4934887;29;20189;-62
2024/01/12 09:21:03;;;;;;;3.60;2.90;;;10.10;56.40;;;;;;4934371;29;20418;-62
2024/01/12 09:23:29;;;;;;;4.30;3.70;;;10.60;55.10;;;;;;4934839;29;20430;-61
2024/01/12 09:25:54;;;;;;;1.10;1.10;;;10.90;54.70;;;;;;4934823;29;20412;-62
2024/01/12 09:28:20;;;;;;;1.90;1.30;;;11.10;52.20;;;;;;4935047;29;20182;-62
2024/01/12 09:30:47;;;;;;;4.47;2.53;;;11.40;52.50;;;;;;4934560;29;20184;-61
2024/01/12 09:33:13;;;;;;;2.90;1.90;;;12.00;51.10;;;;;;4934464;29;20442;-62
2024/01/12 09:35:39;;;;;;;6.50;3.00;;;12.40;50.70;;;;;;4934262;29;20418;-62
2024/01/12 09:38:05;;;;;;;4.90;3.20;;;12.90;49.90;;;;;;4923332;29;20518;-62
2024/01/12 09:40:32;;;;;;;5.10;1.77;;;13.40;49.40;;;;;;4915033;29;20675;-62
2024/01/12 09:43:00;;;;;;;1.60;1.00;;;13.80;48.60;;;;;;4915402;29;20465;-62
2024/01/12 09:45:26;;;;;;;2.63;0.90;;;14.30;45.50;;;;;;4915600;29;20411;-62
2024/01/12 09:47:53;;;;;;;1.23;1.13;;;14.40;46.20;;;;;;4915576;29;20418;-62
2024/01/12 09:50:22;;;;;;;0.90;0.90;;;15.10;44.80;;;;;;4915327;29;20478;-62
2024/01/12 09:52:51;;;;;;;1.53;1.30;;;15.80;43.20;;;;;;4915217;29;20421;-62
2024/01/12 09:55:17;;;;;;;1.93;1.73;;;16.40;43.20;;;;;;4915284;29;20499;-59
2024/01/12 09:57:45;;;;;;;2.50;2.30;;;16.90;41.50;;;;;;4914954;29;20835;-60
2024/01/12 10:00:14;;;;;;;2.70;2.50;;;17.50;40.60;;;;;;4915284;29;20403;-60
2024/01/12 10:02:40;;;;;;;3.27;2.37;;;17.90;41.10;;;;;;4915002;29;20409;-60
2024/01/12 10:05:07;;;;;;;2.60;1.40;;;18.40;38.90;;;;;;4917956;29;20422;-60
2024/01/12 10:07:32;;;;;;;1.90;1.60;;;18.60;36.90;;;;;;4921610;29;20186;-60
2024/01/12 10:09:59;;;;;;;2.50;1.67;;;18.00;38.30;;;;;;4921459;29;20397;-60
2024/01/12 10:12:24;;;;;;;2.60;1.37;;;18.10;38.30;;;;;;4921183;29;20204;-62
2024/01/12 10:15:03;;;;;;;1.80;1.50;;;18.30;37.40;;;;;;4921540;29;20422;-63
2024/01/12 10:17:30;;;;;;;1.30;1.17;;;18.50;37.20;;;;;;4921660;29;20708;-63
2024/01/12 10:19:56;;;;;;;1.00;0.90;;;18.50;37.40;;;;;;4921642;29;20551;-62
2024/01/12 10:22:22;;;;;;;1.47;1.37;;;18.20;36.60;;;;;;4921168;29;20517;-62
2024/01/12 10:25:03;;;;;;;0.70;0.70;;;17.90;36.20;;;;;;4921500;29;20543;-61
2024/01/12 10:27:32;;;;;;;1.03;0.60;;;16.80;34.40;;;;;;4921479;29;20209;-60
2024/01/12 10:29:57;;;;;;;2.57;1.33;;;16.80;37.10;;;;;;4921285;29;20470;-62
2024/01/12 10:32:24;;;;;;;0.60;0.60;;;16.90;35.50;;;;;;4920963;29;20434;-62
2024/01/12 10:34:52;;;;;;;2.60;0.90;;;17.20;32.40;;;;;;4921453;29;20187;-62
2024/01/12 10:37:19;;;;;;;0.97;0.60;;;17.50;32.70;;;;;;4921347;29;20462;-62
2024/01/12 10:39:50;;;;;;;1.00;0.50;;;17.10;33.10;;;;;;4921296;29;20407;-62
2024/01/12 10:42:16;;;;;;;2.50;0.60;;;16.90;31.90;;;;;;4920837;29;20461;-62
2024/01/12 10:44:44;;;;;;;0.50;0.50;;;16.50;33.10;;;;;;4921520;29;20506;-63
2024/01/12 10:47:17;;;;;;;0.50;0.50;;;16.30;33.40;;;;;;4921457;29;20425;-62
2024/01/12 10:49:51;;;;;;;0.80;0.40;;;16.00;32.70;;;;;;4921361;29;21040;-63
2024/01/12 10:52:31;;;;;;;0.70;0.50;;;15.70;33.30;;;;;;4920975;29;20868;-63
2024/01/12 10:55:05;;;;;;;0.50;0.50;;;15.60;34.80;;;;;;4921234;29;20418;-62
2024/01/12 10:57:32;;;;;;;0.50;0.50;;;14.80;35.30;;;;;;4921309;29;20466;-63
2024/01/12 10:59:59;;;;;;;0.60;0.60;;;14.80;37.90;;;;;;4921283;29;20804;-62
2024/01/12 11:02:25;;;;;;;1.70;0.67;;;14.60;37.10;;;;;;4920890;29;20524;-62
2024/01/12 11:04:51;;;;;;;0.60;0.50;;;14.40;38.50;;;;;;4921226;29;20450;-62
2024/01/12 11:07:18;;;;;;;1.57;0.70;;;13.60;39.50;;;;;;4921028;29;20424;-62
2024/01/12 11:09:43;;;;;;;0.40;0.40;;;13.10;40.00;;;;;;4921019;29;20418;-63
2024/01/12 11:12:14;;;;;;;0.80;0.53;;;12.60;40.40;;;;;;4920790;29;20445;-62
2024/01/12 11:14:41;;;;;;;1.47;0.90;;;12.00;41.20;;;;;;4921046;29;20239;-62
2024/01/12 11:17:07;;;;;;;0.43;0.43;;;11.50;43.20;;;;;;4918998;29;20454;-62
2024/01/12 11:19:33;;;;;;;0.50;0.50;;;11.20;44.70;;;;;;4918050;29;20422;-62
2024/01/12 11:22:18;;;;;;;0.40;0.40;;;10.90;44.70;;;;;;4917025;29;20410;-64
2024/01/12 11:24:44;;;;;;;0.40;0.40;;;10.20;45.40;;;;;;4918258;29;20415;-63
2024/01/12 11:27:14;;;;;;;0.40;0.40;;;9.60;47.50;;;;;;4917885;29;20330;-64
2024/01/12 11:29:43;;;;;;;0.70;0.50;;;9.30;49.10;;;;;;4917843;29;20186;-64
2024/01/12 11:32:14;;;;;;;3.70;0.60;;;8.90;50.00;;;;;;4917244;29;20823;-64
2024/01/12 11:34:40;;;;;;;0.30;0.30;;;8.70;50.50;;;;;;4917808;29;20552;-64
2024/01/12 11:37:09;;;;;;;0.70;0.47;;;8.50;51.60;;;;;;4917841;29;20210;-64
2024/01/12 11:39:37;;;;;;;0.50;0.50;;;8.20;52.70;;;;;;4917763;29;20167;-64
2024/01/12 11:42:07;;;;;;;1.48;1.15;;;8.20;53.30;;;;;;4917709;29;20183;-63
2024/01/12 11:44:35;;;;;;;4.63;4.22;;;8.10;52.90;;;;;;4918579;29;20186;-63
2024/01/12 11:47:05;;;;;;;2.10;1.15;;;8.00;53.70;;;;;;4900658;29;20187;-62
2024/01/12 11:49:31;;;;;;;1.08;1.08;;;7.80;53.70;;;;;;4901163;29;20196;-63
2024/01/12 11:52:09;;;;;;;0.68;0.60;;;7.40;54.10;;;;;;4901386;29;20190;-63
2024/01/12 11:54:40;;;;;;;1.27;1.00;;;7.30;55.00;;;;;;4900928;29;20576;-63
2024/01/12 11:57:06;;;;;;;1.13;0.73;;;7.20;55.60;;;;;;4917498;29;20229;-63
2024/01/12 11:59:32;;;;;;;0.50;0.50;;;6.90;56.40;;;;;;4900298;29;20620;-63
2024/01/12 12:02:00;;;;;;;0.40;0.40;;;6.70;57.40;;;;;;4917160;29;20410;-64
2024/01/12 12:04:25;;;;;;;0.75;0.70;;;6.20;60.00;;;;;;4917242;29;20411;-63
2024/01/12 12:06:52;;;;;;;1.43;0.50;;;6.00;60.40;;;;;;4917244;29;20603;-64
2024/01/12 12:09:19;;;;;;;0.40;0.40;;;5.90;60.40;;;;;;4917491;29;20209;-63
2024/01/12 12:11:45;;;;;;;2.00;0.60;;;5.80;61.50;;;;;;4916686;29;20181;-63
2024/01/12 12:14:11;;;;;;;0.82;0.82;;;5.70;63.60;;;;;;4917064;29;20196;-64
2024/01/12 12:16:36;;;;;;;1.83;1.27;;;5.80;64.00;;;;;;4916850;29;20692;-64
2024/01/12 12:19:03;;;;;;;0.50;0.43;;;5.70;63.30;;;;;;4916777;29;20179;-64
2024/01/12 12:21:29;;;;;;;1.00;1.00;;;5.60;64.80;;;;;;4922728;29;20178;-64
2024/01/12 12:23:54;;;;;;;3.30;1.00;;;5.40;66.50;;;;;;4935921;29;20245;-63
2024/01/12 12:26:20;;;;;;;1.33;1.20;;;5.30;67.00;;;;;;4935789;29;20489;-63
2024/01/12 12:28:47;;;;;;;0.60;0.60;;;5.20;67.10;;;;;;4935451;29;20185;-64
2024/01/12 12:31:13;;;;;;;2.15;0.95;;;5.10;66.60;;;;;;4935830;29;20178;-64
2024/01/12 12:33:43;;;;;;;1.17;0.77;;;5.00;68.00;;;;;;4935611;29;20198;-63
2024/01/12 12:36:09;;;;;;;0.50;0.50;;;5.10;68.90;;;;;;4935660;29;20900;-64
2024/01/12 12:38:39;;;;;;;0.65;0.65;;;5.10;69.60;;;;;;4935667;29;20181;-63
2024/01/12 12:41:08;;;;;;;1.17;0.82;;;5.10;69.50;;;;;;4935155;29;20251;-63
2024/01/12 12:43:35;;;;;;;2.85;1.70;;;4.90;71.10;;;;;;4935364;29;20221;-63